Paso Robles Municipal Airport Paso Robles US
ICAO: KPRB
IATA: PRB
Category: Medium
Scheduled Services: No

Elevation: 840 ft
TransAlt. 18000 ft.

Airport Communications:
ASOS:132.175
OAKLAND CNTR:128.7
HAWTHORNE RDO:122.4
CTAF/UNICOM:123

KPRB Zoom In..

Runways:

(A) RW 01 length 6008 ft width 150 ft
---- / hdg 14

(B) RW 13 length 4701 ft width 100 ft
---- / hdg 129

(C) RW 19 length 6008 ft width 150 ft
---- / hdg 194

(D) RW 31 length 4701 ft width 100 ft
---- / hdg 309

Location; KPRB
Day. 26 / Time. 03.53 Zulu
* Altimeter: 30.08
* Temperature: 15° c. 59°f.
* Wind from: 330° Speed 09 kn.
Dewpoint: 09° c.
Visibility: 10 Statute Miles.
Clouds: Scattered 2900 ft.
Clouds: Overcast 3400 ft.

KPRB 260353Z AUTO 33009KT 10SM SCT029 OVC034 15/09 A3008 RMK AO2 SLP184 T01500094


Wind From 330°
Speed 09 kn.

 
 
jpsmedia.com for Web Design SOUNDCLOUD worldairports.se 2018   terms of use